createdAt,value
2023-01-29T00:01:57.086Z,41.17
2023-01-29T00:07:04.994Z,41.85
2023-01-29T00:12:10.689Z,43.60
2023-01-29T00:17:16.487Z,43.05
2023-01-29T00:22:26.433Z,43.60
2023-01-29T00:27:32.448Z,42.90
2023-01-29T00:32:38.144Z,42.15
2023-01-29T00:37:46.002Z,38.10
2023-01-29T00:43:04.198Z,39.10
2023-01-29T00:48:10.596Z,38.55
2023-01-29T00:53:18.499Z,37.83
2023-01-29T00:58:28.332Z,37.10
2023-01-29T01:03:35.452Z,41.77
2023-01-29T01:08:56.038Z,43.08
2023-01-29T01:14:02.221Z,38.50
2023-01-29T01:19:07.847Z,40.63
2023-01-29T01:24:15.975Z,40.97
2023-01-29T01:29:21.241Z,42.50
2023-01-29T01:34:27.190Z,42.15
2023-01-29T01:39:35.109Z,39.47
2023-01-29T01:44:59.380Z,42.00
2023-01-29T01:50:10.468Z,42.92
2023-01-29T01:55:21.958Z,41.73
2023-01-29T02:00:30.327Z,42.15
2023-01-29T02:05:50.486Z,43.33
2023-01-29T02:10:58.410Z,43.00
2023-01-29T02:16:03.812Z,43.97
2023-01-29T02:21:25.266Z,42.50
2023-01-29T02:26:47.812Z,43.28
2023-01-29T02:32:03.016Z,40.58
2023-01-29T02:37:14.463Z,44.33
2023-01-29T02:42:30.466Z,41.25
2023-01-29T02:47:45.874Z,36.43
2023-01-29T02:53:01.082Z,37.15
2023-01-29T02:58:12.819Z,42.97
2023-01-29T03:03:26.322Z,41.55
2023-01-29T03:08:45.672Z,40.28
2023-01-29T03:13:55.921Z,41.77
2023-01-29T03:19:08.653Z,42.78
2023-01-29T03:24:30.239Z,42.70
2023-01-29T03:29:51.389Z,42.13
2023-01-29T03:35:04.401Z,42.15
2023-01-29T03:40:13.865Z,40.17
2023-01-29T03:45:26.981Z,43.72
2023-01-29T03:50:41.608Z,43.83
2023-01-29T03:55:54.364Z,39.92
2023-01-29T04:01:04.562Z,39.67
2023-01-29T04:06:19.428Z,50.20
2023-01-29T04:11:43.904Z,42.60
2023-01-29T04:16:53.671Z,37.55
2023-01-29T04:22:14.064Z,44.95
2023-01-29T04:27:29.798Z,49.17
2023-01-29T04:32:48.121Z,49.40
2023-01-29T04:38:04.380Z,41.78
2023-01-29T04:43:12.370Z,45.85
2023-01-29T04:48:23.193Z,42.67
2023-01-29T04:53:40.210Z,42.92
2023-01-29T04:58:48.548Z,36.67
2023-01-29T05:03:56.086Z,44.60
2023-01-29T05:09:05.446Z,41.33
2023-01-29T05:14:15.158Z,39.30
2023-01-29T05:19:20.636Z,41.58
2023-01-29T05:24:29.481Z,43.37
2023-01-29T05:29:34.763Z,42.85
2023-01-29T05:34:40.046Z,40.03
2023-01-29T05:39:47.848Z,47.40
2023-01-29T05:44:53.176Z,47.70
2023-01-29T05:49:58.418Z,47.83
2023-01-29T05:55:06.605Z,41.78
2023-01-29T06:00:13.489Z,47.83
2023-01-29T06:05:18.923Z,41.88
2023-01-29T06:10:27.187Z,45.42
2023-01-29T06:15:32.474Z,44.40
2023-01-29T06:20:37.821Z,45.63
2023-01-29T06:25:45.694Z,40.75
2023-01-29T06:30:51.024Z,42.20
2023-01-29T06:36:00.422Z,46.72
2023-01-29T06:41:14.668Z,44.23
2023-01-29T06:46:20.354Z,42.70
2023-01-29T06:51:25.572Z,45.25
2023-01-29T06:56:33.803Z,47.88
2023-01-29T07:01:44.439Z,44.30
2023-01-29T07:06:49.772Z,43.67
2023-01-29T07:11:57.728Z,50.50
2023-01-29T07:17:08.255Z,46.08
2023-01-29T07:22:14.336Z,39.40
2023-01-29T07:27:22.227Z,45.25
2023-01-29T07:32:27.669Z,50.97
2023-01-29T07:37:32.993Z,44.38
2023-01-29T07:42:42.297Z,45.70
2023-01-29T07:47:47.629Z,45.00
2023-01-29T07:52:53.272Z,50.70
2023-01-29T07:58:02.855Z,43.13
2023-01-29T08:03:09.748Z,54.00
2023-01-29T08:08:15.470Z,56.33
2023-01-29T08:13:23.325Z,51.33
2023-01-29T08:18:28.567Z,55.47
2023-01-29T08:23:33.815Z,43.37
2023-01-29T08:28:41.726Z,50.35
2023-01-29T08:33:46.999Z,41.38
2023-01-29T08:38:52.211Z,48.72
2023-01-29T08:44:04.514Z,52.33
2023-01-29T08:49:12.249Z,46.73
2023-01-29T08:54:17.785Z,41.20
2023-01-29T08:59:25.647Z,47.45
2023-01-29T09:04:31.340Z,44.95
2023-01-29T09:09:37.676Z,48.63
2023-01-29T09:14:45.504Z,51.03
2023-01-29T09:19:52.286Z,45.47
2023-01-29T09:24:57.582Z,46.15
2023-01-29T09:30:05.458Z,52.65
2023-01-29T09:35:11.717Z,49.13
2023-01-29T09:40:26.507Z,52.67
2023-01-29T09:45:34.460Z,46.80
2023-01-29T09:50:43.444Z,48.78
2023-01-29T09:55:54.136Z,52.65
2023-01-29T10:01:11.546Z,52.20
2023-01-29T10:06:28.004Z,52.50
2023-01-29T10:11:45.967Z,49.90
2023-01-29T10:17:07.640Z,46.30
2023-01-29T10:22:34.310Z,42.53
2023-01-29T10:27:44.557Z,42.00
2023-01-29T10:32:53.338Z,48.40
2023-01-29T10:38:03.412Z,48.28
2023-01-29T10:43:15.752Z,47.17
2023-01-29T10:48:41.113Z,41.17
2023-01-29T10:53:56.243Z,51.25
2023-01-29T10:59:05.480Z,48.73
2023-01-29T11:04:16.252Z,49.10
2023-01-29T11:15:01.639Z,47.35
2023-01-29T11:20:35.423Z,42.53
2023-01-29T11:25:55.666Z,46.40
2023-01-29T11:31:01.204Z,50.63
2023-01-29T11:36:24.261Z,47.53
2023-01-29T11:41:29.678Z,48.72
2023-01-29T11:46:36.644Z,54.22
2023-01-29T11:51:44.635Z,42.27
2023-01-29T11:56:52.613Z,42.88
2023-01-29T12:01:59.355Z,42.75
2023-01-29T12:07:19.705Z,42.72
2023-01-29T12:12:34.438Z,43.75
2023-01-29T12:17:42.500Z,45.80
2023-01-29T12:23:01.757Z,45.88
2023-01-29T12:28:17.708Z,42.92
2023-01-29T12:33:32.180Z,51.83
2023-01-29T12:38:41.084Z,50.33
2023-01-29T12:43:50.938Z,47.67
2023-01-29T12:49:03.633Z,47.72
2023-01-29T12:54:31.391Z,47.65
2023-01-29T12:59:42.831Z,45.17
2023-01-29T13:04:53.954Z,50.85
2023-01-29T13:10:10.322Z,44.27
2023-01-29T13:15:25.511Z,46.47
2023-01-29T13:20:33.729Z,49.22
2023-01-29T13:25:41.889Z,41.47
2023-01-29T13:30:47.558Z,49.35
2023-01-29T13:36:01.767Z,42.47
2023-01-29T13:41:11.564Z,41.42
2023-01-29T13:46:21.662Z,42.15
2023-01-29T13:51:39.113Z,38.35
2023-01-29T13:57:02.379Z,43.92
2023-01-29T14:02:23.051Z,47.07
2023-01-29T14:07:53.431Z,40.90
2023-01-29T14:13:30.877Z,41.42
2023-01-29T14:18:38.441Z,38.95
2023-01-29T14:23:48.699Z,37.28
2023-01-29T14:29:03.612Z,40.87
2023-01-29T14:34:16.955Z,35.17
2023-01-29T14:39:27.434Z,39.38
2023-01-29T14:45:11.563Z,38.90
2023-01-29T14:50:49.773Z,45.00
2023-01-29T14:56:01.146Z,36.47
2023-01-29T15:01:18.622Z,41.90
2023-01-29T15:06:31.614Z,42.17
2023-01-29T15:11:43.693Z,37.90
2023-01-29T15:17:00.235Z,40.25
2023-01-29T15:22:11.262Z,39.60
2023-01-29T15:27:19.174Z,37.15
2023-01-29T15:32:32.718Z,39.25
2023-01-29T15:37:39.393Z,35.83
2023-01-29T15:42:48.608Z,31.35
2023-01-29T15:48:00.673Z,28.63
2023-01-29T15:53:13.369Z,26.08
2023-01-29T15:58:22.134Z,23.00
2023-01-29T16:03:35.271Z,25.43
2023-01-29T16:08:42.446Z,27.73
2023-01-29T16:13:49.197Z,25.50
2023-01-29T16:19:00.736Z,21.83
2023-01-29T16:24:11.951Z,22.45
2023-01-29T16:29:23.092Z,25.50
2023-01-29T16:34:44.853Z,26.52
2023-01-29T16:39:55.969Z,26.53
2023-01-29T16:45:04.643Z,22.33
2023-01-29T16:50:43.377Z,27.33
2023-01-29T16:56:05.497Z,26.30
2023-01-29T17:01:14.420Z,28.25
2023-01-29T17:06:27.446Z,24.47
2023-01-29T17:11:38.973Z,29.02
2023-01-29T17:16:53.068Z,25.13
2023-01-29T17:22:04.759Z,25.83
2023-01-29T17:27:10.427Z,26.42
2023-01-29T17:32:17.309Z,31.67
2023-01-29T17:37:25.334Z,25.27
2023-01-29T17:42:31.420Z,28.35
2023-01-29T17:47:36.803Z,28.73
2023-01-29T17:52:45.383Z,28.35
2023-01-29T17:57:51.685Z,29.00
2023-01-29T18:02:58.103Z,30.08
2023-01-29T18:08:06.187Z,27.63
2023-01-29T18:13:11.713Z,26.33
2023-01-29T18:18:23.871Z,25.40
2023-01-29T18:23:32.695Z,29.17
2023-01-29T18:28:38.257Z,30.08
2023-01-29T18:33:51.692Z,28.25
2023-01-29T18:39:04.394Z,33.57
2023-01-29T18:44:09.904Z,28.65
2023-01-29T18:49:18.239Z,25.47
2023-01-29T18:54:29.807Z,33.20
2023-01-29T18:59:35.287Z,31.55
2023-01-29T19:04:40.924Z,26.27
2023-01-29T19:09:50.583Z,25.00
2023-01-29T19:14:57.383Z,33.47
2023-01-29T19:20:04.863Z,26.17
2023-01-29T19:25:19.774Z,29.10
2023-01-29T19:30:25.485Z,32.53
2023-01-29T19:35:32.688Z,30.58
2023-01-29T19:40:41.051Z,27.63
2023-01-29T19:45:50.131Z,29.63
2023-01-29T19:51:05.334Z,27.20
2023-01-29T19:56:19.006Z,31.67
2023-01-29T20:01:24.815Z,28.58
2023-01-29T20:06:33.544Z,29.47
2023-01-29T20:11:52.154Z,28.63
2023-01-29T20:16:59.121Z,27.95
2023-01-29T20:22:05.953Z,33.60
2023-01-29T20:27:15.137Z,31.08
2023-01-29T20:32:21.041Z,29.20
2023-01-29T20:37:27.758Z,26.35
2023-01-29T20:42:35.922Z,29.00
2023-01-29T20:47:41.430Z,29.03
2023-01-29T20:52:47.709Z,32.95
2023-01-29T20:58:05.848Z,28.30
2023-01-29T21:03:12.042Z,28.33
2023-01-29T21:08:17.617Z,25.83
2023-01-29T21:13:25.713Z,28.93
2023-01-29T21:18:32.333Z,30.23
2023-01-29T21:23:37.677Z,28.90
2023-01-29T21:28:45.484Z,29.65
2023-01-29T21:33:50.961Z,24.45
2023-01-29T21:38:56.327Z,23.33
2023-01-29T21:44:04.517Z,26.48
2023-01-29T21:49:09.972Z,26.57
2023-01-29T21:54:15.259Z,24.50
2023-01-29T21:59:24.121Z,24.17
2023-01-29T22:04:29.699Z,28.17
2023-01-29T22:09:35.050Z,26.55
2023-01-29T22:14:43.464Z,26.70
2023-01-29T22:19:49.031Z,26.35
2023-01-29T22:24:55.224Z,24.65
2023-01-29T22:30:03.177Z,21.63
2023-01-29T22:35:10.483Z,25.48
2023-01-29T22:40:17.217Z,26.27
2023-01-29T22:45:25.318Z,26.70
2023-01-29T22:50:30.618Z,24.65
2023-01-29T22:55:36.223Z,24.70
2023-01-29T23:00:44.055Z,26.55
2023-01-29T23:05:49.338Z,30.80
2023-01-29T23:10:54.673Z,28.42
2023-01-29T23:16:05.356Z,28.23
2023-01-29T23:21:11.252Z,30.83
2023-01-29T23:26:30.033Z,28.92
2023-01-29T23:31:37.912Z,24.97
2023-01-29T23:36:43.264Z,29.85
2023-01-29T23:41:48.562Z,27.63
2023-01-29T23:46:56.562Z,29.37
2023-01-29T23:52:01.984Z,28.13
2023-01-29T23:57:07.256Z,28.57
